createdAt,value
2018-06-17T00:00:18.043Z,15.71
2018-06-17T00:01:18.082Z,15.73
2018-06-17T00:02:18.337Z,15.70
2018-06-17T00:03:17.604Z,15.74
2018-06-17T00:04:17.863Z,15.76
2018-06-17T00:05:18.122Z,15.76
2018-06-17T00:06:17.379Z,15.80
2018-06-17T00:07:17.649Z,15.77
2018-06-17T00:08:17.905Z,15.71
2018-06-17T00:09:18.170Z,15.73
2018-06-17T00:10:17.430Z,15.71
2018-06-17T00:11:17.521Z,15.67
2018-06-17T00:12:17.783Z,15.67
2018-06-17T00:13:18.045Z,15.64
2018-06-17T00:14:18.297Z,15.60
2018-06-17T00:15:17.566Z,15.57
2018-06-17T00:16:17.822Z,15.54
2018-06-17T00:17:18.085Z,15.50
2018-06-17T00:18:18.346Z,15.50
2018-06-17T00:19:17.605Z,15.53
2018-06-17T00:20:17.899Z,15.49
2018-06-17T00:21:17.930Z,15.45
2018-06-17T00:22:18.192Z,15.39
2018-06-17T00:23:17.460Z,15.36
2018-06-17T00:24:17.722Z,15.33
2018-06-17T00:25:17.982Z,15.32
2018-06-17T00:26:18.239Z,15.32
2018-06-17T00:27:17.502Z,15.36
2018-06-17T00:28:17.767Z,15.41
2018-06-17T00:29:18.024Z,15.42
2018-06-17T00:30:18.321Z,15.42
2018-06-17T00:31:18.349Z,15.45
2018-06-17T00:32:17.605Z,15.41
2018-06-17T00:33:17.869Z,15.41
2018-06-17T00:34:18.127Z,15.38
2018-06-17T00:35:17.430Z,15.33
2018-06-17T00:36:17.698Z,15.33
2018-06-17T00:37:18.009Z,15.33
2018-06-17T00:38:18.265Z,15.32
2018-06-17T00:39:17.523Z,15.29
2018-06-17T00:40:17.804Z,15.32
2018-06-17T00:41:17.833Z,15.26
2018-06-17T00:42:18.099Z,15.28
2018-06-17T00:43:18.359Z,15.22
2018-06-17T00:44:17.619Z,15.22
2018-06-17T00:45:17.881Z,15.21
2018-06-17T00:46:18.146Z,15.16
2018-06-17T00:47:17.469Z,15.19
2018-06-17T00:48:17.868Z,15.15
2018-06-17T00:49:18.135Z,15.15
2018-06-17T00:50:17.404Z,15.12
2018-06-17T00:51:17.441Z,15.08
2018-06-17T00:52:17.705Z,15.01
2018-06-17T00:53:17.958Z,14.97
2018-06-17T00:54:18.219Z,14.92
2018-06-17T00:55:17.496Z,14.87
2018-06-17T00:56:17.762Z,14.83
2018-06-17T00:57:18.019Z,14.77
2018-06-17T00:58:18.272Z,14.74
2018-06-17T00:59:17.520Z,14.71
2018-06-17T01:00:17.793Z,14.70
2018-06-17T01:01:18.351Z,14.67
2018-06-17T01:02:17.610Z,14.64
2018-06-17T01:03:17.877Z,14.63
2018-06-17T01:04:18.131Z,14.57
2018-06-17T01:05:17.401Z,14.56
2018-06-17T01:06:17.657Z,14.52
2018-06-17T01:07:17.918Z,14.52
2018-06-17T01:08:18.183Z,14.47
2018-06-17T01:09:17.446Z,14.46
2018-06-17T01:10:17.720Z,14.43
2018-06-17T01:11:17.745Z,14.39
2018-06-17T01:12:18.004Z,14.35
2018-06-17T01:13:18.263Z,14.32
2018-06-17T01:14:17.526Z,14.30
2018-06-17T01:15:17.789Z,14.23
2018-06-17T01:16:18.052Z,14.20
2018-06-17T01:17:18.316Z,14.20
2018-06-17T01:18:17.576Z,14.19
2018-06-17T01:19:17.835Z,14.16
2018-06-17T01:20:18.124Z,14.15
2018-06-17T01:21:18.157Z,14.09
2018-06-17T01:22:17.417Z,14.09
2018-06-17T01:23:17.679Z,14.08
2018-06-17T01:24:17.938Z,14.05
2018-06-17T01:25:18.196Z,14.05
2018-06-17T01:26:17.461Z,14.07
2018-06-17T01:27:17.731Z,14.08
2018-06-17T01:28:17.989Z,14.07
2018-06-17T01:29:18.260Z,14.08
2018-06-17T01:30:17.533Z,14.08
2018-06-17T01:31:17.579Z,14.11
2018-06-17T01:32:17.891Z,14.11
2018-06-17T01:33:18.160Z,14.15
2018-06-17T01:34:17.412Z,14.18
2018-06-17T01:35:17.677Z,14.18
2018-06-17T01:36:17.952Z,14.23
2018-06-17T01:37:18.209Z,14.23
2018-06-17T01:38:17.474Z,14.25
2018-06-17T01:39:17.739Z,14.29
2018-06-17T01:40:18.004Z,14.28
2018-06-17T01:41:18.037Z,14.29
2018-06-17T01:42:18.300Z,14.30
2018-06-17T01:43:17.559Z,14.30
2018-06-17T01:44:17.824Z,14.30
2018-06-17T01:45:18.087Z,14.29
2018-06-17T01:46:18.341Z,14.30
2018-06-17T01:47:17.592Z,14.30
2018-06-17T01:48:17.856Z,14.28
2018-06-17T01:49:18.113Z,14.25
2018-06-17T01:50:18.381Z,14.25
2018-06-17T01:51:17.426Z,14.23
2018-06-17T01:52:17.683Z,14.22
2018-06-17T01:53:17.938Z,14.20
2018-06-17T01:54:18.192Z,14.22
2018-06-17T01:55:17.488Z,14.20
2018-06-17T01:56:17.741Z,14.20
2018-06-17T01:57:18.000Z,14.15
2018-06-17T01:58:18.266Z,14.15
2018-06-17T01:59:17.523Z,14.12
2018-06-17T02:00:17.807Z,14.12
2018-06-17T02:01:17.827Z,14.12
2018-06-17T02:02:18.096Z,14.12
2018-06-17T02:03:18.353Z,14.09
2018-06-17T02:04:17.603Z,14.05
2018-06-17T02:05:17.851Z,14.02
2018-06-17T02:06:18.118Z,14.00
2018-06-17T02:07:17.379Z,13.98
2018-06-17T02:08:17.644Z,13.97
2018-06-17T02:09:17.903Z,13.97
2018-06-17T02:10:18.443Z,13.97
2018-06-17T02:11:18.203Z,13.97
2018-06-17T02:12:17.474Z,13.98
2018-06-17T02:13:17.734Z,14.00
2018-06-17T02:14:17.990Z,14.01
2018-06-17T02:15:18.253Z,14.00
2018-06-17T02:16:17.514Z,14.04
2018-06-17T02:17:17.781Z,14.05
2018-06-17T02:18:18.243Z,14.05
2018-06-17T02:19:17.524Z,14.04
2018-06-17T02:20:17.784Z,14.05
2018-06-17T02:21:17.829Z,14.05
2018-06-17T02:22:18.091Z,14.02
2018-06-17T02:23:18.348Z,14.01
2018-06-17T02:24:17.614Z,13.95
2018-06-17T02:25:17.878Z,13.91
2018-06-17T02:26:18.138Z,13.88
2018-06-17T02:27:17.392Z,13.80
2018-06-17T02:28:17.648Z,13.77
2018-06-17T02:29:17.906Z,13.70
2018-06-17T02:30:18.176Z,13.71
2018-06-17T02:31:18.221Z,13.64
2018-06-17T02:32:17.482Z,13.60
2018-06-17T02:33:17.752Z,13.61
2018-06-17T02:34:18.594Z,13.55
2018-06-17T02:35:17.862Z,13.57
2018-06-17T02:36:18.126Z,13.54
2018-06-17T02:37:17.385Z,13.51
2018-06-17T02:38:17.650Z,13.51
2018-06-17T02:39:17.913Z,13.50
2018-06-17T02:40:18.551Z,13.49
2018-06-17T02:41:17.811Z,13.49
2018-06-17T02:42:18.076Z,13.49
2018-06-17T02:43:18.342Z,13.46
2018-06-17T02:44:17.624Z,13.43
2018-06-17T02:45:17.898Z,13.46
2018-06-17T02:46:18.164Z,13.43
2018-06-17T02:47:17.433Z,13.40
2018-06-17T02:48:17.693Z,13.39
2018-06-17T02:49:17.976Z,13.37
2018-06-17T02:50:18.859Z,13.36
2018-06-17T02:51:18.287Z,13.32
2018-06-17T02:52:17.547Z,13.36
2018-06-17T02:53:17.809Z,13.33
2018-06-17T02:54:18.067Z,13.39
2018-06-17T02:55:18.329Z,13.44
2018-06-17T02:56:17.590Z,13.47
2018-06-17T02:57:17.859Z,13.50
2018-06-17T02:58:18.120Z,13.50
2018-06-17T02:59:17.393Z,13.47
2018-06-17T03:00:17.674Z,13.43
2018-06-17T03:01:17.735Z,13.40
2018-06-17T03:02:17.996Z,13.37
2018-06-17T03:03:18.266Z,13.30
2018-06-17T03:04:17.534Z,13.27
2018-06-17T03:05:17.813Z,13.26
2018-06-17T03:06:18.080Z,13.19
2018-06-17T03:07:18.357Z,13.21
2018-06-17T03:08:17.619Z,13.15
2018-06-17T03:09:17.888Z,13.14
2018-06-17T03:10:18.163Z,13.08
2018-06-17T03:11:18.200Z,13.05
2018-06-17T03:12:17.797Z,13.06
2018-06-17T03:13:18.064Z,13.02
2018-06-17T03:14:18.328Z,13.04
2018-06-17T03:15:17.589Z,13.04
2018-06-17T03:16:17.859Z,13.01
2018-06-17T03:17:18.121Z,12.99
2018-06-17T03:18:18.375Z,12.96
2018-06-17T03:19:17.642Z,12.98
2018-06-17T03:20:17.910Z,12.95
2018-06-17T03:21:17.940Z,12.94
2018-06-17T03:22:18.194Z,12.99
2018-06-17T03:23:17.448Z,12.96
2018-06-17T03:24:17.702Z,12.94
2018-06-17T03:25:17.970Z,12.91
2018-06-17T03:26:18.232Z,12.89
2018-06-17T03:27:17.640Z,12.91
2018-06-17T03:28:17.898Z,12.94
2018-06-17T03:29:18.190Z,12.94
2018-06-17T03:30:17.458Z,12.91
2018-06-17T03:31:17.505Z,12.99
2018-06-17T03:32:18.172Z,12.99
2018-06-17T03:33:17.478Z,13.08
2018-06-17T03:34:17.744Z,13.11
2018-06-17T03:35:18.008Z,13.11
2018-06-17T03:36:18.271Z,13.08
2018-06-17T03:37:17.537Z,13.06
2018-06-17T03:38:17.800Z,13.09
2018-06-17T03:39:18.061Z,13.08
2018-06-17T03:40:18.328Z,13.05
2018-06-17T03:41:18.368Z,13.09
2018-06-17T03:42:17.631Z,13.14
2018-06-17T03:43:17.884Z,13.16
2018-06-17T03:44:18.145Z,13.14
2018-06-17T03:45:17.408Z,13.12
2018-06-17T03:46:17.672Z,13.16
2018-06-17T03:47:17.935Z,13.16
2018-06-17T03:48:18.196Z,13.14
2018-06-17T03:49:17.461Z,13.14
2018-06-17T03:50:17.725Z,13.14
2018-06-17T03:51:17.786Z,13.16
2018-06-17T03:52:18.040Z,13.14
2018-06-17T03:53:18.567Z,13.16
2018-06-17T03:54:17.826Z,13.22
2018-06-17T03:55:18.089Z,13.19
2018-06-17T03:56:18.344Z,13.21
2018-06-17T03:57:17.604Z,13.19
2018-06-17T03:58:17.873Z,13.19
2018-06-17T03:59:18.187Z,13.22
2018-06-17T04:00:17.458Z,13.21
2018-06-17T04:01:17.511Z,13.19
2018-06-17T04:02:17.768Z,13.18
2018-06-17T04:03:18.033Z,13.16
2018-06-17T04:04:18.306Z,13.18
2018-06-17T04:05:17.568Z,13.19
2018-06-17T04:06:17.825Z,13.18
2018-06-17T04:07:18.089Z,13.19
2018-06-17T04:08:18.642Z,13.25
2018-06-17T04:09:17.895Z,13.25
2018-06-17T04:10:18.162Z,13.26
2018-06-17T04:11:18.189Z,13.29
2018-06-17T04:12:17.447Z,13.27
2018-06-17T04:13:17.710Z,13.27
2018-06-17T04:14:17.973Z,13.33
2018-06-17T04:15:18.237Z,13.33
2018-06-17T04:16:17.500Z,13.36
2018-06-17T04:17:17.763Z,13.37
2018-06-17T04:18:18.021Z,13.39
2018-06-17T04:19:18.281Z,13.37
2018-06-17T04:20:17.547Z,13.42
2018-06-17T04:21:17.585Z,13.40
2018-06-17T04:22:17.842Z,13.42
2018-06-17T04:23:18.101Z,13.46
2018-06-17T04:24:18.356Z,13.46
2018-06-17T04:25:17.664Z,13.51
2018-06-17T04:26:17.954Z,13.53
2018-06-17T04:27:18.218Z,13.53
2018-06-17T04:28:17.472Z,13.58
2018-06-17T04:29:17.730Z,13.63
2018-06-17T04:30:17.999Z,13.70
2018-06-17T04:31:18.045Z,13.71
2018-06-17T04:32:18.310Z,13.82
2018-06-17T04:33:17.576Z,13.85
2018-06-17T04:34:17.843Z,13.87
2018-06-17T04:35:18.102Z,13.94
2018-06-17T04:36:18.369Z,13.95
2018-06-17T04:37:17.635Z,13.97
2018-06-17T04:38:17.893Z,13.98
2018-06-17T04:39:18.149Z,14.01
2018-06-17T04:40:17.404Z,14.04
2018-06-17T04:41:17.452Z,14.04
2018-06-17T04:42:17.710Z,14.11
2018-06-17T04:43:17.970Z,14.11
2018-06-17T04:44:18.232Z,14.20
2018-06-17T04:45:17.485Z,14.23
2018-06-17T04:46:17.743Z,14.35
2018-06-17T04:47:17.994Z,14.41
2018-06-17T04:48:18.275Z,14.44
2018-06-17T04:49:17.527Z,14.50
2018-06-17T04:50:17.793Z,14.56
2018-06-17T04:51:17.843Z,14.59
2018-06-17T04:52:18.097Z,14.63
2018-06-17T04:53:18.353Z,14.63
2018-06-17T04:54:17.610Z,14.70
2018-06-17T04:55:17.874Z,14.74
2018-06-17T04:56:18.130Z,14.81
2018-06-17T04:57:17.429Z,14.85
2018-06-17T04:58:17.688Z,14.90
2018-06-17T04:59:17.949Z,14.94
2018-06-17T05:00:18.216Z,15.02
2018-06-17T05:01:18.271Z,15.01
2018-06-17T05:02:17.529Z,15.11
2018-06-17T05:03:17.794Z,15.15
2018-06-17T05:04:18.113Z,15.22
2018-06-17T05:05:18.372Z,15.23
2018-06-17T05:06:17.671Z,15.31
2018-06-17T05:07:17.934Z,15.38
2018-06-17T05:08:18.191Z,15.43
2018-06-17T05:09:17.449Z,15.52
2018-06-17T05:10:17.713Z,15.52
2018-06-17T05:11:17.759Z,15.54
2018-06-17T05:12:18.022Z,15.59
2018-06-17T05:13:18.284Z,15.63
2018-06-17T05:14:17.554Z,15.64
2018-06-17T05:15:17.809Z,15.71
2018-06-17T05:16:18.068Z,15.73
2018-06-17T05:17:18.331Z,15.78
2018-06-17T05:18:17.595Z,15.81
2018-06-17T05:19:17.869Z,15.87
2018-06-17T05:20:18.152Z,15.94
2018-06-17T05:21:18.176Z,16.00
2018-06-17T05:22:17.438Z,16.12
2018-06-17T05:23:17.699Z,16.24
2018-06-17T05:24:17.955Z,16.32
2018-06-17T05:25:18.216Z,16.45
2018-06-17T05:26:17.481Z,16.56
2018-06-17T05:27:17.740Z,16.68
2018-06-17T05:28:17.997Z,16.81
2018-06-17T05:29:18.589Z,16.86
2018-06-17T05:30:17.859Z,16.87
2018-06-17T05:31:17.905Z,16.88
2018-06-17T05:32:18.175Z,16.95
2018-06-17T05:33:17.431Z,17.00
2018-06-17T05:34:17.688Z,17.04
2018-06-17T05:35:17.961Z,17.08
2018-06-17T05:36:18.249Z,17.07
2018-06-17T05:37:17.510Z,17.05
2018-06-17T05:38:17.824Z,17.07
2018-06-17T05:39:18.089Z,17.07
2018-06-17T05:40:18.357Z,17.07
2018-06-17T05:41:17.408Z,17.07
2018-06-17T05:42:17.673Z,17.05
2018-06-17T05:43:17.938Z,17.11
2018-06-17T05:44:18.196Z,17.10
2018-06-17T05:45:17.492Z,17.10
2018-06-17T05:46:17.803Z,17.10
2018-06-17T05:47:18.069Z,17.11
2018-06-17T05:48:18.770Z,17.11
2018-06-17T05:49:18.027Z,17.07
2018-06-17T05:50:18.294Z,17.14
2018-06-17T05:51:18.325Z,17.13
2018-06-17T05:52:17.582Z,17.19
2018-06-17T05:53:17.837Z,17.21
2018-06-17T05:54:18.104Z,17.21
2018-06-17T05:55:18.363Z,17.21
2018-06-17T05:56:17.625Z,17.29
2018-06-17T05:57:17.892Z,17.29
2018-06-17T05:58:18.150Z,17.26
2018-06-17T05:59:17.404Z,17.39
2018-06-17T06:00:17.685Z,17.48
2018-06-17T06:01:17.723Z,17.52
2018-06-17T06:02:17.986Z,17.69
2018-06-17T06:03:18.246Z,17.79
2018-06-17T06:04:17.508Z,17.80
2018-06-17T06:05:17.771Z,17.73
2018-06-17T06:06:18.046Z,17.79
2018-06-17T06:07:18.306Z,17.86
2018-06-17T06:08:17.571Z,17.90
2018-06-17T06:09:17.840Z,17.94
2018-06-17T06:10:18.145Z,17.93
2018-06-17T06:11:18.143Z,17.97
2018-06-17T06:12:17.400Z,18.01
2018-06-17T06:13:17.669Z,18.04
2018-06-17T06:14:17.955Z,18.04
2018-06-17T06:15:18.214Z,18.07
2018-06-17T06:16:17.485Z,18.14
2018-06-17T06:17:17.748Z,18.21
2018-06-17T06:18:18.004Z,18.36
2018-06-17T06:19:18.261Z,18.33
2018-06-17T06:20:17.515Z,18.39
2018-06-17T06:21:17.539Z,18.39
2018-06-17T06:22:17.795Z,18.36
2018-06-17T06:23:18.054Z,18.39
2018-06-17T06:24:18.314Z,18.52
2018-06-17T06:25:17.577Z,18.51
2018-06-17T06:26:17.843Z,18.60
2018-06-17T06:27:18.105Z,18.56
2018-06-17T06:28:18.362Z,18.55
2018-06-17T06:29:17.618Z,18.55
2018-06-17T06:30:17.906Z,18.88
2018-06-17T06:31:17.924Z,18.87
2018-06-17T06:32:18.185Z,18.93
2018-06-17T06:33:17.443Z,18.87
2018-06-17T06:34:17.698Z,18.80
2018-06-17T06:35:17.961Z,18.75
2018-06-17T06:36:18.232Z,18.69
2018-06-17T06:37:17.714Z,18.66
2018-06-17T06:38:18.088Z,18.69
2018-06-17T06:39:18.348Z,18.77
2018-06-17T06:40:17.684Z,18.86
2018-06-17T06:41:17.726Z,18.94
2018-06-17T06:42:18.190Z,19.00
2018-06-17T06:43:17.450Z,19.18
2018-06-17T06:44:17.728Z,19.34
2018-06-17T06:45:18.006Z,19.44
2018-06-17T06:46:18.295Z,19.70
2018-06-17T06:47:17.555Z,19.81
2018-06-17T06:48:17.814Z,19.97
2018-06-17T06:49:18.080Z,20.29
2018-06-17T06:50:18.349Z,20.31
2018-06-17T06:51:17.393Z,20.44
2018-06-17T06:52:17.660Z,20.32
2018-06-17T06:53:17.937Z,20.63
2018-06-17T06:54:18.189Z,20.79
2018-06-17T06:55:17.459Z,20.73
2018-06-17T06:56:17.717Z,20.76
2018-06-17T06:57:17.985Z,20.83
2018-06-17T06:58:18.261Z,20.93
2018-06-17T06:59:17.519Z,20.83
2018-06-17T07:00:17.809Z,20.71
2018-06-17T07:01:17.828Z,20.34
2018-06-17T07:02:18.087Z,20.54
2018-06-17T07:03:18.354Z,20.66
2018-06-17T07:04:17.611Z,20.27
2018-06-17T07:05:17.873Z,20.10
2018-06-17T07:06:18.142Z,20.01
2018-06-17T07:07:17.403Z,19.73
2018-06-17T07:08:17.664Z,19.83
2018-06-17T07:09:17.943Z,19.80
2018-06-17T07:10:18.213Z,19.83
2018-06-17T07:11:18.239Z,19.80
2018-06-17T07:12:17.499Z,19.69
2018-06-17T07:13:17.757Z,19.58
2018-06-17T07:14:18.013Z,19.59
2018-06-17T07:15:18.596Z,19.63
2018-06-17T07:16:17.855Z,19.62
2018-06-17T07:17:18.130Z,19.63
2018-06-17T07:18:17.399Z,19.60
2018-06-17T07:19:17.661Z,19.72
2018-06-17T07:20:17.939Z,19.77
2018-06-17T07:21:17.973Z,19.94
2018-06-17T07:22:18.237Z,19.87
2018-06-17T07:23:17.506Z,19.83
2018-06-17T07:24:17.759Z,19.63
2018-06-17T07:25:18.012Z,19.51
2018-06-17T07:26:18.267Z,19.55
2018-06-17T07:27:17.520Z,19.62
2018-06-17T07:28:17.772Z,19.53
2018-06-17T07:29:18.035Z,19.58
2018-06-17T07:30:18.303Z,19.91
2018-06-17T07:31:18.362Z,20.08
2018-06-17T07:32:17.617Z,20.03
2018-06-17T07:33:17.871Z,20.01
2018-06-17T07:34:18.137Z,20.13
2018-06-17T07:35:17.408Z,19.99
2018-06-17T07:36:17.666Z,20.07
2018-06-17T07:37:17.934Z,20.23
2018-06-17T07:38:18.200Z,20.38
2018-06-17T07:39:17.461Z,20.44
2018-06-17T07:40:17.728Z,20.59
2018-06-17T07:41:17.785Z,20.59
2018-06-17T07:42:18.047Z,20.54
2018-06-17T07:43:18.308Z,20.52
2018-06-17T07:44:17.564Z,20.52
2018-06-17T07:45:17.822Z,20.52
2018-06-17T07:46:18.083Z,20.55
2018-06-17T07:47:18.348Z,20.20
2018-06-17T07:48:17.601Z,19.96
2018-06-17T07:49:17.895Z,20.13
2018-06-17T07:50:18.186Z,20.14
2018-06-17T07:51:18.227Z,20.04
2018-06-17T07:52:17.488Z,20.10
2018-06-17T07:53:17.750Z,20.27
2018-06-17T07:54:18.015Z,20.35
2018-06-17T07:55:18.275Z,20.55
2018-06-17T07:56:17.533Z,20.63
2018-06-17T07:57:17.795Z,20.62
2018-06-17T07:58:18.054Z,20.58
2018-06-17T07:59:18.324Z,20.59
2018-06-17T08:00:17.604Z,20.56
2018-06-17T08:01:17.629Z,20.51
2018-06-17T08:02:17.905Z,20.56
2018-06-17T08:03:18.168Z,20.46
2018-06-17T08:04:17.607Z,20.45
2018-06-17T08:05:17.870Z,20.49
2018-06-17T08:06:18.135Z,20.49
2018-06-17T08:07:17.401Z,20.80
2018-06-17T08:08:17.667Z,20.72
2018-06-17T08:09:17.935Z,20.86
2018-06-17T08:10:18.198Z,20.84
2018-06-17T08:11:18.237Z,20.49
2018-06-17T08:12:17.501Z,20.44
2018-06-17T08:13:17.764Z,20.59
2018-06-17T08:14:18.022Z,20.46
2018-06-17T08:15:18.280Z,20.37
2018-06-17T08:16:17.544Z,20.37
2018-06-17T08:17:17.806Z,20.37
2018-06-17T08:18:18.065Z,20.29
2018-06-17T08:19:18.334Z,20.29
2018-06-17T08:20:17.665Z,20.28
2018-06-17T08:21:17.624Z,20.29
2018-06-17T08:22:17.880Z,20.20
2018-06-17T08:23:18.134Z,20.03
2018-06-17T08:24:17.404Z,20.00
2018-06-17T08:25:17.658Z,19.90
2018-06-17T08:26:17.918Z,20.01
2018-06-17T08:27:18.183Z,20.13
2018-06-17T08:28:17.436Z,20.20
2018-06-17T08:29:17.699Z,20.14
2018-06-17T08:30:17.980Z,20.14
2018-06-17T08:31:17.997Z,20.28
2018-06-17T08:32:18.265Z,20.39
2018-06-17T08:33:17.529Z,20.25
2018-06-17T08:34:17.783Z,20.06
2018-06-17T08:35:18.042Z,20.00
2018-06-17T08:36:18.299Z,19.99
2018-06-17T08:37:17.554Z,20.28
2018-06-17T08:38:17.813Z,20.16
2018-06-17T08:39:18.071Z,20.21
2018-06-17T08:40:18.334Z,20.24
2018-06-17T08:41:17.400Z,20.25
2018-06-17T08:42:17.668Z,20.32
2018-06-17T08:43:17.928Z,20.38
2018-06-17T08:44:18.194Z,20.41
2018-06-17T08:45:17.457Z,20.59
2018-06-17T08:46:17.729Z,20.18
2018-06-17T08:47:17.988Z,20.25
2018-06-17T08:48:18.245Z,20.28
2018-06-17T08:49:17.498Z,20.21
2018-06-17T08:50:17.765Z,20.21
2018-06-17T08:51:17.821Z,20.48
2018-06-17T08:52:18.078Z,20.58
2018-06-17T08:53:18.333Z,20.52
2018-06-17T08:54:17.603Z,20.41
2018-06-17T08:55:18.048Z,20.41
2018-06-17T08:56:18.317Z,20.51
2018-06-17T08:57:17.584Z,20.58
2018-06-17T08:58:17.845Z,20.54
2018-06-17T08:59:18.129Z,20.75
2018-06-17T09:00:17.533Z,20.80
2018-06-17T09:01:17.449Z,20.96
2018-06-17T09:02:17.705Z,21.13
2018-06-17T09:03:17.964Z,21.17
2018-06-17T09:04:18.219Z,21.17
2018-06-17T09:05:17.507Z,21.17
2018-06-17T09:06:17.781Z,21.09
2018-06-17T09:07:18.038Z,21.11
2018-06-17T09:08:18.298Z,20.86
2018-06-17T09:09:17.560Z,20.87
2018-06-17T09:10:18.140Z,20.83
2018-06-17T09:11:18.186Z,20.55
2018-06-17T09:12:17.466Z,20.42
2018-06-17T09:13:17.775Z,20.59
2018-06-17T09:14:18.035Z,20.46
2018-06-17T09:15:17.551Z,20.38
2018-06-17T09:16:17.822Z,20.52
2018-06-17T09:17:18.078Z,20.51
2018-06-17T09:18:18.351Z,20.46
2018-06-17T09:19:17.759Z,20.34
2018-06-17T09:20:18.083Z,20.44
2018-06-17T09:21:18.109Z,20.48
2018-06-17T09:22:18.364Z,20.42
2018-06-17T09:23:17.624Z,20.49
2018-06-17T09:24:17.885Z,20.45
2018-06-17T09:25:18.215Z,20.54
2018-06-17T09:26:17.649Z,20.49
2018-06-17T09:27:17.905Z,20.55
2018-06-17T09:28:18.170Z,20.56
2018-06-17T09:29:17.432Z,20.46
2018-06-17T09:30:17.718Z,20.48
2018-06-17T09:31:17.753Z,20.34
2018-06-17T09:32:18.030Z,20.31
2018-06-17T09:33:17.475Z,20.68
2018-06-17T09:34:17.737Z,20.68
2018-06-17T09:35:17.996Z,20.83
2018-06-17T09:36:18.308Z,21.09
2018-06-17T09:37:17.572Z,21.11
2018-06-17T09:38:17.834Z,21.21
2018-06-17T09:39:18.159Z,21.17
2018-06-17T09:40:17.417Z,21.21
2018-06-17T09:41:17.474Z,21.03
2018-06-17T09:42:17.740Z,21.13
2018-06-17T09:43:18.000Z,20.83
2018-06-17T09:44:18.283Z,20.97
2018-06-17T09:45:17.673Z,20.94
2018-06-17T09:46:17.936Z,20.79
2018-06-17T09:47:18.197Z,20.58
2018-06-17T09:48:17.453Z,20.52
2018-06-17T09:49:17.724Z,20.55
2018-06-17T09:50:17.992Z,20.38
2018-06-17T09:51:18.037Z,20.28
2018-06-17T09:52:18.291Z,20.37
2018-06-17T09:53:17.551Z,20.32
2018-06-17T09:54:17.810Z,20.24
2018-06-17T09:55:18.076Z,20.20
2018-06-17T09:56:18.334Z,20.31
2018-06-17T09:57:17.606Z,20.37
2018-06-17T09:58:17.873Z,20.17
2018-06-17T09:59:18.134Z,20.16
2018-06-17T10:00:17.408Z,20.11
2018-06-17T10:01:17.463Z,20.13
2018-06-17T10:02:17.734Z,20.20
2018-06-17T10:03:17.994Z,20.04
2018-06-17T10:04:18.260Z,20.08
2018-06-17T10:05:17.519Z,20.08
2018-06-17T10:06:17.773Z,20.10
2018-06-17T10:07:18.035Z,20.06
2018-06-17T10:08:18.289Z,20.01
2018-06-17T10:09:17.543Z,19.93
2018-06-17T10:10:17.804Z,19.74
2018-06-17T10:11:17.866Z,19.77
2018-06-17T10:12:18.171Z,19.73
2018-06-17T10:13:17.435Z,19.80
2018-06-17T10:14:17.701Z,19.76
2018-06-17T10:15:17.965Z,19.72
2018-06-17T10:16:18.234Z,19.69
2018-06-17T10:17:17.494Z,19.69
2018-06-17T10:18:17.763Z,19.65
2018-06-17T10:19:18.025Z,19.63
2018-06-17T10:20:18.532Z,19.53
2018-06-17T10:21:18.329Z,19.48
2018-06-17T10:22:17.590Z,19.42
2018-06-17T10:23:17.860Z,19.32
2018-06-17T10:24:18.118Z,19.35
2018-06-17T10:25:18.395Z,19.39
2018-06-17T10:26:17.667Z,19.31
2018-06-17T10:27:17.938Z,19.27
2018-06-17T10:28:18.191Z,19.22
2018-06-17T10:29:17.464Z,19.13
2018-06-17T10:30:17.826Z,18.93
2018-06-17T10:31:17.872Z,18.95
2018-06-17T10:32:18.128Z,18.90
2018-06-17T10:33:17.409Z,18.83
2018-06-17T10:34:17.679Z,18.86
2018-06-17T10:35:17.960Z,18.93
2018-06-17T10:36:18.244Z,18.98
2018-06-17T10:37:17.656Z,19.04
2018-06-17T10:38:17.924Z,19.14
2018-06-17T10:39:18.195Z,19.11
2018-06-17T10:40:17.458Z,19.08
2018-06-17T10:41:17.499Z,19.25
2018-06-17T10:42:17.765Z,19.37
2018-06-17T10:43:18.027Z,19.49
2018-06-17T10:44:18.312Z,19.59
2018-06-17T10:45:17.663Z,19.60
2018-06-17T10:46:17.921Z,19.52
2018-06-17T10:47:18.172Z,19.32
2018-06-17T10:48:17.426Z,19.56
2018-06-17T10:49:17.685Z,19.58
2018-06-17T10:50:17.959Z,19.42
2018-06-17T10:51:18.004Z,19.48
2018-06-17T10:52:18.256Z,19.65
2018-06-17T10:53:17.513Z,19.65
2018-06-17T10:54:17.772Z,19.86
2018-06-17T10:55:18.031Z,19.93
2018-06-17T10:56:18.372Z,20.03
2018-06-17T10:57:17.804Z,20.13
2018-06-17T10:58:18.071Z,20.21
2018-06-17T10:59:18.328Z,20.14
2018-06-17T11:00:17.584Z,20.14
2018-06-17T11:01:17.642Z,20.06
2018-06-17T11:02:18.103Z,19.83
2018-06-17T11:03:18.360Z,20.10
2018-06-17T11:04:17.629Z,20.04
2018-06-17T11:05:17.992Z,20.35
2018-06-17T11:06:17.473Z,20.31
2018-06-17T11:07:17.741Z,20.41
2018-06-17T11:08:18.006Z,20.06
2018-06-17T11:09:18.270Z,19.99
2018-06-17T11:10:17.543Z,20.11
2018-06-17T11:11:17.589Z,20.45
2018-06-17T11:12:17.850Z,20.51
2018-06-17T11:13:18.192Z,20.54
2018-06-17T11:14:17.598Z,20.38
2018-06-17T11:15:17.857Z,20.46
2018-06-17T11:16:18.116Z,20.52
2018-06-17T11:17:18.389Z,20.28
2018-06-17T11:18:17.642Z,20.23
2018-06-17T11:19:17.923Z,20.21
2018-06-17T11:20:18.190Z,20.07
2018-06-17T11:21:18.223Z,20.20
2018-06-17T11:22:17.493Z,20.51
2018-06-17T11:23:17.754Z,20.72
2018-06-17T11:24:18.019Z,20.92
2018-06-17T11:25:18.280Z,20.80
2018-06-17T11:26:17.522Z,20.46
2018-06-17T11:27:17.780Z,20.42
2018-06-17T11:28:18.051Z,20.75
2018-06-17T11:29:18.324Z,20.94
2018-06-17T11:30:17.590Z,21.06
2018-06-17T11:31:17.636Z,21.13
2018-06-17T11:32:17.891Z,21.25
2018-06-17T11:33:18.161Z,21.06
2018-06-17T11:34:17.420Z,20.83
2018-06-17T11:35:17.678Z,20.89
2018-06-17T11:36:17.939Z,20.66
2018-06-17T11:37:18.201Z,20.69
2018-06-17T11:38:17.460Z,20.49
2018-06-17T11:39:17.711Z,20.55
2018-06-17T11:40:17.989Z,20.55
2018-06-17T11:41:18.041Z,20.78
2018-06-17T11:42:18.303Z,21.20
2018-06-17T11:43:17.564Z,21.18
2018-06-17T11:44:17.818Z,21.24
2018-06-17T11:45:18.086Z,21.06
2018-06-17T11:46:18.345Z,21.09
2018-06-17T11:47:17.600Z,21.03
2018-06-17T11:48:17.852Z,20.83
2018-06-17T11:49:18.126Z,20.84
2018-06-17T11:50:18.407Z,20.82
2018-06-17T11:51:17.465Z,20.90
2018-06-17T11:52:17.816Z,20.90
2018-06-17T11:53:18.071Z,20.49
2018-06-17T11:54:18.490Z,20.56
2018-06-17T11:55:17.758Z,20.76
2018-06-17T11:56:18.016Z,20.51
2018-06-17T11:57:18.290Z,20.52
2018-06-17T11:58:17.551Z,20.51
2018-06-17T11:59:17.874Z,20.55
2018-06-17T12:00:18.144Z,20.46
2018-06-17T12:01:18.174Z,20.46
2018-06-17T12:02:17.442Z,20.35
2018-06-17T12:03:17.746Z,20.35
2018-06-17T12:04:18.007Z,20.72
2018-06-17T12:05:18.262Z,20.71
2018-06-17T12:06:17.529Z,20.75
2018-06-17T12:07:17.802Z,20.69
2018-06-17T12:08:18.068Z,20.76
2018-06-17T12:09:18.583Z,20.93
2018-06-17T12:10:17.857Z,21.02
2018-06-17T12:11:17.897Z,21.07
2018-06-17T12:12:18.173Z,20.68
2018-06-17T12:13:17.435Z,20.71
2018-06-17T12:14:17.692Z,20.90
2018-06-17T12:15:17.948Z,20.86
2018-06-17T12:16:18.201Z,20.83
2018-06-17T12:17:17.470Z,21.30
2018-06-17T12:18:17.735Z,21.66
2018-06-17T12:19:17.996Z,21.59
2018-06-17T12:20:18.257Z,21.62
2018-06-17T12:21:18.295Z,21.62
2018-06-17T12:22:17.555Z,22.02
2018-06-17T12:23:17.820Z,22.00
2018-06-17T12:24:18.110Z,22.23
2018-06-17T12:25:18.374Z,22.26
2018-06-17T12:26:17.658Z,22.48
2018-06-17T12:27:17.930Z,22.33
2018-06-17T12:28:18.184Z,22.33
2018-06-17T12:29:17.442Z,21.80
2018-06-17T12:30:17.705Z,22.19
2018-06-17T12:31:17.746Z,22.05
2018-06-17T12:32:18.014Z,22.20
2018-06-17T12:33:18.278Z,22.28
2018-06-17T12:34:17.532Z,22.47
2018-06-17T12:35:17.814Z,22.50
2018-06-17T12:36:18.072Z,22.60
2018-06-17T12:37:18.343Z,22.80
2018-06-17T12:38:17.612Z,22.93
2018-06-17T12:39:17.878Z,22.28
2018-06-17T12:40:18.140Z,22.18
2018-06-17T12:41:18.177Z,22.18
2018-06-17T12:42:17.433Z,22.36
2018-06-17T12:43:17.702Z,22.38
2018-06-17T12:44:17.966Z,22.16
2018-06-17T12:45:18.231Z,22.05
2018-06-17T12:46:17.490Z,22.23
2018-06-17T12:47:17.757Z,22.43
2018-06-17T12:48:18.021Z,22.50
2018-06-17T12:49:18.288Z,22.20
2018-06-17T12:50:17.565Z,22.64
2018-06-17T12:51:17.613Z,23.02
2018-06-17T12:52:17.879Z,22.93